Time;durP1;ratioP1;P1;durP2;ratioP2;P2;SDS_P1;SDS_P2;PMS_P1;PMS_P2;Temp;Humidity;BMP_temperature;BMP_pressure;BME280_temperature;BME280_humidity;BME280_pressure;Samples;Min_cycle;Max_cycle;Signal;HPM_P1;HPM_P2
2023/01/18 00:01:03;;;;;;;15.32;10.10;;;17.70;76.10;;;18.55;43.03;96047.38;5075818;28;20043;-83
2023/01/18 00:03:32;;;;;;;15.63;10.93;;;17.70;76.20;;;18.63;43.15;96050.91;5075018;28;20939;-83
2023/01/18 00:06:02;;;;;;;15.23;10.05;;;17.70;76.10;;;18.62;43.08;96052.06;5075311;28;20055;-83
2023/01/18 00:08:29;;;;;;;19.75;10.20;;;17.70;76.20;;;18.59;43.21;96045.41;5069596;28;20048;-83
2023/01/18 00:11:09;;;;;;;15.95;9.32;;;17.80;76.20;;;18.57;43.09;96049.72;5070216;28;20093;-83
2023/01/18 00:13:35;;;;;;;16.40;10.43;;;17.70;76.10;;;18.55;43.12;96041.13;5039330;28;20112;-83
2023/01/18 00:16:06;;;;;;;13.68;9.15;;;17.70;76.10;;;18.52;43.08;96039.94;5102573;28;20131;-83
2023/01/18 00:18:36;;;;;;;18.85;10.18;;;17.70;76.10;;;18.55;43.11;96036.41;5068003;28;20046;-83
2023/01/18 00:21:03;;;;;;;16.15;10.48;;;17.70;76.20;;;18.62;43.14;96041.91;5097813;28;20044;-83
2023/01/18 00:23:30;;;;;;;14.85;9.82;;;17.70;76.10;;;18.64;43.17;96046.97;5059906;28;20548;-83
2023/01/18 00:26:07;;;;;;;15.48;9.75;;;17.70;76.10;;;18.55;43.04;96036.41;5073441;28;20043;-83
2023/01/18 00:28:34;;;;;;;18.48;9.80;;;17.70;76.10;;;18.51;43.19;96027.38;5038087;28;20047;-83
2023/01/18 00:31:00;;;;;;;14.73;9.95;;;17.70;76.10;;;18.55;43.08;96038.38;5052405;28;20046;-83
2023/01/18 00:33:27;;;;;;;18.48;9.85;;;17.70;76.10;;;18.48;42.99;96041.13;5071470;28;20040;-83
2023/01/18 00:36:01;;;;;;;13.93;9.57;;;17.70;76.10;;;18.56;43.23;96037.97;5070277;28;20533;-83
2023/01/18 00:38:28;;;;;;;14.73;10.40;;;17.70;76.10;;;18.62;43.19;96043.84;5069956;28;20070;-83
2023/01/18 00:40:57;;;;;;;14.02;9.60;;;17.70;76.10;;;18.57;42.98;96038.75;5070251;28;20044;-83
2023/01/18 00:43:38;;;;;;;19.27;9.93;;;17.70;76.10;;;18.52;42.97;96039.13;5090439;28;20089;-83
2023/01/18 00:46:09;;;;;;;17.45;10.32;;;17.70;77.00;;;18.53;42.85;96029.75;5069275;28;20039;-83
2023/01/18 00:48:36;;;;;;;15.00;10.30;;;17.70;76.10;;;18.50;42.86;96041.50;5052170;28;20064;-83
2023/01/18 00:51:02;;;;;;;17.33;10.25;;;17.70;76.00;;;18.51;42.87;96037.59;5058144;28;20109;-83
2023/01/18 00:53:28;;;;;;;16.02;9.70;;;17.70;76.00;;;18.48;42.91;96036.41;5070856;28;20079;-84
2023/01/18 00:55:54;;;;;;;16.60;9.52;;;17.70;76.00;;;18.51;42.56;96041.09;5067255;28;20070;-83
2023/01/18 00:58:20;;;;;;;12.57;9.27;;;17.60;75.90;;;18.48;42.85;96039.16;5035483;28;20468;-83
2023/01/18 01:00:49;;;;;;;14.40;9.45;;;17.60;75.90;;;18.56;43.01;96037.19;5036593;28;20039;-83
2023/01/18 01:03:15;;;;;;;16.98;10.90;;;17.70;76.20;;;18.55;42.85;96032.88;5073773;28;20480;-83
2023/01/18 01:08:26;;;;;;;16.70;9.40;;;17.70;76.10;;;18.49;43.07;96012.47;5083695;28;20076;-83
2023/01/18 01:11:02;;;;;;;15.65;9.82;;;17.70;76.80;;;18.44;43.01;96008.16;5056781;28;20175;-83
2023/01/18 01:27:12;;;;;;;13.35;8.73;;;17.60;76.00;;;18.41;42.88;96009.72;5080383;28;20067;-83
2023/01/18 01:29:38;;;;;;;12.10;8.18;;;17.60;75.90;;;18.39;42.98;95995.66;5072403;28;20045;-83
2023/01/18 01:32:05;;;;;;;14.52;9.85;;;17.60;76.00;;;18.49;42.93;95990.53;5092216;28;20055;-83
2023/01/18 01:34:31;;;;;;;12.45;8.77;;;17.60;76.10;;;18.48;42.98;95983.47;5051899;28;20695;-83
2023/01/18 01:36:57;;;;;;;13.60;8.40;;;17.60;76.00;;;18.45;43.03;95982.31;5073210;28;20044;-83
2023/01/18 01:39:24;;;;;;;14.65;9.40;;;17.60;76.00;;;18.42;42.97;95989.38;5059797;28;20046;-83
2023/01/18 01:41:50;;;;;;;12.43;7.95;;;17.60;76.00;;;18.42;42.91;95978.38;5087586;28;20142;-83
2023/01/18 01:44:19;;;;;;;13.35;8.45;;;17.60;76.00;;;18.40;42.98;95974.47;5105439;28;20039;-83
2023/01/18 01:47:07;;;;;;;12.65;8.60;;;17.60;76.00;;;18.40;42.93;95983.47;5109014;28;20042;-84
2023/01/18 01:49:47;;;;;;;13.88;8.57;;;17.60;75.90;;;18.39;42.92;95973.69;5090863;28;20051;-83
2023/01/18 01:52:17;;;;;;;11.45;8.45;;;17.60;75.70;;;18.36;42.90;95970.94;5078075;28;20040;-83
2023/01/18 01:54:54;;;;;;;12.80;8.63;;;17.60;75.80;;;18.42;42.77;95981.13;5058693;28;20032;-84
2023/01/18 01:57:42;;;;;;;13.77;8.15;;;17.60;76.10;;;18.47;43.11;95984.63;5089750;28;20043;-83
2023/01/18 02:00:13;;;;;;;16.80;9.43;;;17.60;76.00;;;18.43;42.81;95970.94;5083284;28;20039;-83
2023/01/18 02:02:39;;;;;;;11.73;8.18;;;17.60;76.10;;;18.39;42.92;95965.47;5072107;28;20074;-83
2023/01/18 02:05:06;;;;;;;13.00;7.90;;;17.60;76.00;;;18.37;42.89;95956.84;5085435;28;20070;-84
2023/01/18 02:07:32;;;;;;;13.15;8.80;;;17.60;76.00;;;18.37;43.02;95947.81;5059943;28;20627;-83
2023/01/18 02:09:59;;;;;;;12.25;7.13;;;17.60;76.00;;;18.34;42.86;95943.91;5093286;28;20047;-84
2023/01/18 02:12:25;;;;;;;16.73;8.73;;;17.60;75.90;;;18.34;43.17;95935.66;5074638;28;20548;-83
2023/01/18 02:14:52;;;;;;;12.45;7.50;;;17.60;75.70;;;18.34;42.90;95930.19;5070706;28;20046;-84
2023/01/18 02:17:44;;;;;;;10.68;7.65;;;17.60;75.70;;;18.30;42.98;95923.91;5076722;28;20116;-83
2023/01/18 02:20:53;;;;;;;10.27;7.57;;;17.60;75.70;;;18.38;43.06;95922.72;5095680;28;20036;-84
2023/01/18 02:23:34;;;;;;;11.63;7.72;;;17.60;76.00;;;18.39;42.97;95923.50;5102460;28;20035;-83
2023/01/18 02:26:57;;;;;;;10.35;7.47;;;17.60;76.00;;;18.32;43.02;95928.97;5106108;28;20119;-84
2023/01/18 02:30:16;;;;;;;9.85;7.10;;;17.60;76.00;;;18.27;42.90;95927.44;5060157;28;20056;-83
2023/01/18 02:33:28;;;;;;;10.95;7.07;;;17.50;75.90;;;18.24;43.17;95917.22;5063282;28;20479;-84
2023/01/18 02:35:55;;;;;;;;;;;17.50;75.80;;;18.32;43.05;95904.28;5105857;28;20581;-84
2023/01/18 02:38:43;;;;;;;11.75;7.28;;;17.50;75.90;;;18.36;43.19;95914.09;5100800;28;19927;-84
2023/01/18 02:46:29;;;;;;;12.23;7.55;;;17.60;76.00;;;18.33;42.93;95901.16;5077775;28;20062;-84
2023/01/18 02:47:03;;;;;;;12.65;8.00;;;17.50;75.90;;;18.27;43.12;95877.25;5083382;28;20123;-84
2023/01/18 02:49:31;;;;;;;13.68;8.13;;;17.40;75.80;;;18.22;43.01;95903.16;5093285;28;20059;-84
2023/01/18 02:52:05;;;;;;;11.00;7.03;;;17.40;75.90;;;18.33;43.10;95895.66;5060409;28;20062;-84
2023/01/18 02:54:34;;;;;;;12.00;7.47;;;17.40;75.80;;;18.32;43.03;95907.84;5094655;28;20048;-84
2023/01/18 02:57:06;;;;;;;9.57;6.80;;;17.50;75.90;;;18.33;43.01;95912.13;5077644;28;20040;-84
2023/01/18 02:59:36;;;;;;;11.68;7.28;;;17.50;75.90;;;18.26;43.07;95925.84;5075479;28;20399;-84
2023/01/18 03:02:12;;;;;;;11.30;7.10;;;17.40;75.90;;;18.26;43.06;95925.09;5089057;28;20044;-84
2023/01/18 03:04:52;;;;;;;12.93;7.00;;;17.40;75.80;;;18.27;42.98;95926.63;5095385;28;20115;-84
2023/01/18 03:07:34;;;;;;;10.05;6.53;;;17.50;75.90;;;18.24;42.99;95941.94;5075115;28;20047;-84
2023/01/18 03:10:02;;;;;;;9.80;6.85;;;17.50;75.90;;;18.32;43.14;95945.44;5076693;28;20043;-84
2023/01/18 03:12:45;;;;;;;10.35;6.68;;;17.50;75.90;;;18.33;43.02;95952.50;5074510;28;20379;-84
2023/01/18 03:15:38;;;;;;;10.30;7.53;;;17.50;75.90;;;18.22;43.08;95949.78;5106904;28;20376;-83
2023/01/18 03:18:18;;;;;;;8.73;6.63;;;17.40;75.80;;;18.22;42.98;95958.03;5074493;28;20047;-84
2023/01/18 03:20:50;;;;;;;10.10;6.40;;;17.40;75.80;;;18.18;42.98;95954.47;5106933;27;20052;-84
2023/01/18 03:23:41;;;;;;;9.52;6.05;;;17.40;75.80;;;18.14;43.09;95934.50;5059305;28;20502;-84
2023/01/18 03:26:15;;;;;;;9.97;6.50;;;17.40;75.80;;;18.18;42.76;95929.78;5082325;28;20051;-84
2023/01/18 03:34:58;;;;;;;11.07;6.45;;;17.40;75.70;;;18.23;43.35;95932.13;5093458;28;20052;-84
2023/01/18 03:37:36;;;;;;;8.47;5.47;;;17.40;75.80;;;18.26;43.05;95928.59;5076565;28;20035;-84
2023/01/18 03:40:09;;;;;;;8.38;6.00;;;17.40;75.80;;;18.18;42.78;95925.09;5073755;28;20080;-84
2023/01/18 03:42:47;;;;;;;7.30;5.10;;;17.40;75.90;;;18.16;42.91;95916.47;5061068;28;20040;-84
2023/01/18 03:45:32;;;;;;;12.98;6.60;;;17.40;75.80;;;18.15;43.34;95908.63;5102239;28;20819;-84
2023/01/18 03:48:00;;;;;;;12.40;6.47;;;17.40;75.90;;;18.15;42.96;95908.63;5103163;28;20040;-84
2023/01/18 03:51:01;;;;;;;9.05;6.15;;;17.40;75.80;;;18.23;43.07;95901.97;5059898;28;20074;-84
2023/01/18 03:53:31;;;;;;;8.77;6.28;;;17.40;75.80;;;18.26;43.24;95892.16;5085927;28;20088;-84
2023/01/18 03:56:45;;;;;;;9.18;5.97;;;17.40;75.80;;;18.21;42.80;95876.88;5090031;28;20046;-84
2023/01/18 03:59:11;;;;;;;7.50;5.47;;;17.40;75.90;;;18.15;42.92;95873.75;5044453;28;20043;-84
2023/01/18 04:01:37;;;;;;;8.68;6.13;;;17.40;75.60;;;18.12;42.78;95865.53;5074313;28;20143;-83
2023/01/18 04:04:03;;;;;;;7.97;5.72;;;17.40;75.70;;;18.13;43.09;95875.31;5087989;28;20035;-83
2023/01/18 04:06:30;;;;;;;6.85;5.60;;;17.30;75.70;;;18.26;43.04;95870.22;5091949;28;20477;-84
2023/01/18 04:08:57;;;;;;;8.00;5.55;;;17.30;75.70;;;18.23;43.12;95858.06;5059931;28;20047;-83
2023/01/18 04:11:22;;;;;;;7.57;5.25;;;17.30;75.70;;;18.15;43.06;95854.56;5074736;28;20044;-84
2023/01/18 04:13:49;;;;;;;9.13;6.43;;;17.30;75.70;;;18.11;43.24;95845.53;5087279;28;20043;-84
2023/01/18 04:16:15;;;;;;;8.82;5.68;;;17.30;75.70;;;18.07;43.26;95833.81;5060505;28;20059;-84
2023/01/18 04:18:41;;;;;;;8.27;5.32;;;17.30;75.80;;;18.10;42.87;95841.25;5069853;28;20193;-84
2023/01/18 04:21:07;;;;;;;8.63;5.30;;;17.30;75.70;;;18.14;43.08;95847.50;5072012;28;20134;-84
2023/01/18 04:23:36;;;;;;;6.57;4.93;;;17.30;75.70;;;18.17;43.30;95843.19;5054035;28;20035;-84
2023/01/18 04:26:02;;;;;;;8.13;5.88;;;17.30;75.70;;;18.19;43.43;95851.78;5107219;28;20067;-84
2023/01/18 04:28:28;;;;;;;7.88;5.05;;;17.30;76.00;;;18.16;42.89;95861.59;5059465;28;20054;-83
2023/01/18 04:30:55;;;;;;;7.25;5.00;;;17.30;75.70;;;18.09;43.04;95856.16;5090040;28;20043;-84
2023/01/18 04:33:22;;;;;;;8.07;4.88;;;17.30;75.70;;;18.11;42.94;95845.53;5088064;28;20036;-84
2023/01/18 04:35:48;;;;;;;7.18;4.78;;;17.30;75.70;;;18.08;42.96;95842.81;5058488;28;20083;-83
2023/01/18 04:38:15;;;;;;;6.85;5.55;;;17.30;75.70;;;18.11;43.22;95853.00;5107277;28;20039;-83
2023/01/18 04:40:41;;;;;;;7.18;4.47;;;17.30;75.80;;;18.15;43.19;95840.84;5071728;28;20046;-83
2023/01/18 04:43:07;;;;;;;8.65;4.63;;;17.40;75.80;;;18.14;43.20;95827.50;5089346;28;20826;-84
2023/01/18 04:45:33;;;;;;;7.90;4.45;;;17.30;75.70;;;18.10;42.93;95830.28;5089382;28;20039;-84
2023/01/18 04:48:00;;;;;;;6.18;4.63;;;17.30;75.70;;;18.10;43.00;95833.00;5075844;28;20031;-84
2023/01/18 04:50:26;;;;;;;8.63;4.75;;;17.30;75.80;;;18.10;42.87;95834.97;5090603;28;20458;-84
2023/01/18 04:52:52;;;;;;;5.70;4.47;;;17.30;75.70;;;18.07;42.82;95849.50;5088928;28;20053;-83
2023/01/18 04:55:18;;;;;;;6.25;4.68;;;17.20;75.60;;;18.15;43.18;95848.28;5057442;28;20040;-84
2023/01/18 04:57:44;;;;;;;5.70;4.38;;;17.30;76.10;;;18.16;43.34;95852.59;5070790;28;20046;-84
2023/01/18 05:00:11;;;;;;;7.45;4.70;;;17.30;76.10;;;18.11;43.06;95855.72;5073368;28;20032;-84
2023/01/18 05:02:38;;;;;;;6.90;4.75;;;17.30;75.70;;;18.09;43.08;95860.81;5076389;28;20443;-84
2023/01/18 05:05:05;;;;;;;11.40;5.03;;;17.30;75.80;;;18.11;42.79;95853.00;5088807;28;20047;-84
2023/01/18 05:07:32;;;;;;;6.72;4.45;;;17.20;75.60;;;18.04;42.99;95853.00;5072134;28;20044;-83
2023/01/18 05:10:02;;;;;;;6.18;4.47;;;17.30;75.70;;;18.09;43.07;95852.59;5093102;28;20134;-83
2023/01/18 05:12:28;;;;;;;6.88;4.93;;;17.30;75.80;;;18.16;43.34;95849.84;5092661;28;20202;-84
2023/01/18 05:14:54;;;;;;;7.55;4.28;;;17.30;75.90;;;18.11;43.13;95859.25;5087323;28;20141;-84
2023/01/18 05:17:26;;;;;;;6.45;4.45;;;17.30;75.80;;;18.06;43.05;95856.91;5076553;28;20386;-84
2023/01/18 05:19:53;;;;;;;6.35;4.53;;;17.20;75.60;;;18.02;43.26;95869.09;5072569;28;20039;-84
2023/01/18 05:22:21;;;;;;;9.38;4.88;;;17.20;75.60;;;18.02;42.93;95871.81;5069287;28;20617;-84
2023/01/18 05:24:47;;;;;;;6.28;4.53;;;17.20;75.60;;;18.06;43.17;95869.84;5093891;28;20401;-84
2023/01/18 05:27:14;;;;;;;5.20;4.60;;;17.20;75.80;;;18.11;43.17;95880.41;5055328;28;20044;-83
2023/01/18 05:29:40;;;;;;;7.40;5.18;;;17.30;76.00;;;18.12;43.22;95880.03;5076332;28;20040;-84
2023/01/18 05:32:07;;;;;;;6.15;4.50;;;17.30;76.10;;;18.04;43.27;95892.19;5076280;28;20531;-84
2023/01/18 05:34:32;;;;;;;7.82;4.50;;;17.30;75.70;;;18.04;43.08;95888.66;5071571;28;20032;-83
2023/01/18 05:36:59;;;;;;;7.03;4.53;;;17.20;75.60;;;18.03;43.19;95885.13;5071993;28;20043;-83
2023/01/18 05:39:25;;;;;;;5.18;4.18;;;17.20;75.60;;;18.01;42.81;95895.69;5076087;28;20039;-84
2023/01/18 05:41:51;;;;;;;5.93;4.55;;;17.20;75.60;;;17.98;43.06;95889.03;5076238;28;20032;-83
2023/01/18 05:44:17;;;;;;;5.00;4.03;;;17.20;75.60;;;17.96;43.02;95877.72;5091641;28;20038;-83
2023/01/18 05:46:43;;;;;;;7.65;4.40;;;17.20;75.60;;;17.97;42.97;95879.25;5084748;28;20561;-82
2023/01/18 05:49:09;;;;;;;5.53;3.83;;;17.20;75.60;;;17.96;43.14;95877.72;5072270;28;20117;-82
2023/01/18 05:51:36;;;;;;;8.18;4.35;;;17.10;75.50;;;17.96;42.91;95888.69;5074289;28;20048;-82
2023/01/18 05:54:02;;;;;;;5.88;3.85;;;17.10;75.50;;;17.96;42.83;95899.66;5073127;28;20356;-83
2023/01/18 05:56:28;;;;;;;8.25;5.03;;;17.10;75.50;;;17.94;42.98;95899.25;5057016;28;20040;-82
2023/01/18 05:58:55;;;;;;;6.72;4.35;;;17.10;75.50;;;17.98;42.83;95894.53;5053624;28;20062;-82
2023/01/18 06:01:21;;;;;;;6.18;3.97;;;17.20;75.60;;;17.95;43.08;95894.53;5092341;28;20428;-82
2023/01/18 06:03:47;;;;;;;6.85;4.18;;;17.20;75.60;;;17.96;42.77;95887.88;5069982;28;20032;-82
2023/01/18 06:06:15;;;;;;;6.85;4.68;;;17.20;75.50;;;17.92;42.90;95882.41;5091735;28;20068;-82
2023/01/18 06:08:41;;;;;;;6.18;4.63;;;17.10;75.50;;;17.94;42.99;95882.78;5090269;28;20063;-82
2023/01/18 06:11:08;;;;;;;11.05;4.40;;;17.20;75.60;;;17.95;42.92;95875.34;5077667;28;20059;-82
2023/01/18 06:13:34;;;;;;;6.13;3.70;;;17.20;75.60;;;18.01;43.20;95860.06;5092478;28;20032;-82
2023/01/18 06:16:01;;;;;;;6.90;3.53;;;17.10;75.50;;;18.05;42.97;95855.34;5094426;28;20040;-82
2023/01/18 06:18:30;;;;;;;6.90;3.83;;;17.20;75.60;;;17.99;42.91;95852.22;5091195;28;20055;-82
2023/01/18 06:20:56;;;;;;;5.78;4.22;;;17.20;75.60;;;17.96;42.95;95864.00;5095824;28;20046;-82
2023/01/18 06:23:23;;;;;;;5.95;3.88;;;17.20;75.60;;;17.94;43.06;95860.09;5074315;28;20039;-82
2023/01/18 06:25:49;;;;;;;4.32;3.60;;;17.10;75.50;;;17.92;43.05;95846.75;5059909;28;20407;-82
2023/01/18 06:28:15;;;;;;;5.18;3.90;;;17.10;75.50;;;17.96;43.37;95847.53;5076067;28;20047;-82
2023/01/18 06:30:42;;;;;;;5.70;3.88;;;17.20;75.60;;;18.00;43.15;95856.53;5089323;28;20051;-82
2023/01/18 06:33:09;;;;;;;3.65;3.33;;;17.20;76.00;;;18.02;43.35;95849.88;5063313;28;20040;-82
2023/01/18 06:35:35;;;;;;;4.32;3.20;;;17.10;76.00;;;17.97;43.25;95862.03;5072627;28;20445;-82
2023/01/18 06:38:02;;;;;;;6.15;3.92;;;17.10;75.50;;;17.92;42.91;95881.63;5110242;28;20047;-82
2023/01/18 06:40:29;;;;;;;5.88;3.83;;;17.10;75.50;;;17.91;42.85;95871.81;5093538;28;20044;-82
2023/01/18 06:42:55;;;;;;;5.30;4.07;;;17.10;75.50;;;17.92;42.94;95871.44;5095731;28;20028;-82
2023/01/18 06:45:22;;;;;;;4.88;3.58;;;17.10;75.50;;;17.96;43.63;95876.91;5091968;28;20035;-83
2023/01/18 06:47:51;;;;;;;5.07;3.75;;;17.10;76.20;;;17.99;43.29;95867.91;5063009;28;20040;-82
2023/01/18 06:50:17;;;;;;;7.35;3.75;;;17.10;76.20;;;17.98;43.30;95882.78;5107091;28;20563;-82
2023/01/18 06:52:43;;;;;;;6.15;3.97;;;17.10;76.20;;;17.97;43.37;95892.19;5092548;28;20482;-82
2023/01/18 06:55:11;;;;;;;4.15;3.67;;;17.10;76.00;;;17.88;43.19;95884.34;5094783;28;20045;-83
2023/01/18 06:57:37;;;;;;;5.15;3.08;;;17.10;75.60;;;17.87;43.35;95893.75;5071002;28;20039;-82
2023/01/18 07:00:05;;;;;;;4.47;3.83;;;17.00;75.50;;;17.85;43.33;95903.56;5069260;28;20039;-82
2023/01/18 07:02:34;;;;;;;5.00;3.65;;;17.10;75.50;;;17.86;43.47;95905.91;5061668;28;20035;-83
2023/01/18 07:05:01;;;;;;;5.00;3.35;;;17.10;75.80;;;17.84;43.38;95919.22;5095132;28;20118;-83
2023/01/18 07:07:28;;;;;;;5.45;3.83;;;17.00;75.50;;;17.87;42.86;95921.19;5107661;28;20036;-82
2023/01/18 07:09:57;;;;;;;3.92;3.50;;;17.00;75.50;;;17.88;42.88;95932.94;5076961;28;20047;-82
2023/01/18 07:12:23;;;;;;;4.43;3.72;;;17.00;75.40;;;17.89;42.95;95929.03;5087903;28;20462;-82
2023/01/18 07:14:50;;;;;;;3.40;2.90;;;17.00;75.40;;;17.96;43.18;95939.97;5106793;28;20044;-82
2023/01/18 07:17:16;;;;;;;5.95;3.75;;;17.00;76.10;;;17.95;43.26;95949.41;5108722;28;20045;-82
2023/01/18 07:19:43;;;;;;;4.07;3.45;;;17.10;76.20;;;17.92;43.25;95942.72;5053425;28;20391;-82
2023/01/18 07:22:12;;;;;;;5.80;3.72;;;17.10;75.90;;;17.84;43.14;95941.16;5073225;28;20849;-83
2023/01/18 07:24:38;;;;;;;4.22;3.42;;;17.00;75.50;;;17.89;43.34;95945.47;5058544;28;20657;-82
2023/01/18 07:27:04;;;;;;;3.83;2.50;;;17.00;75.50;;;17.88;42.93;95946.63;5110469;28;20084;-83
2023/01/18 07:29:30;;;;;;;4.70;3.30;;;17.00;75.40;;;17.86;43.21;95938.81;5104221;28;20050;-82
2023/01/18 07:31:56;;;;;;;9.68;3.75;;;17.00;75.60;;;17.92;43.33;95941.94;5077167;28;20534;-82
2023/01/18 07:34:23;;;;;;;4.70;3.10;;;17.00;76.10;;;17.96;43.29;95929.81;5092208;28;20062;-82
2023/01/18 07:36:49;;;;;;;5.70;3.22;;;17.00;76.10;;;17.87;43.16;95923.16;5088676;28;20047;-83
2023/01/18 07:39:15;;;;;;;5.95;3.72;;;17.00;75.70;;;17.84;43.25;95923.94;5089562;28;20452;-82
2023/01/18 07:41:41;;;;;;;6.18;3.70;;;17.00;75.90;;;17.83;43.02;95923.13;5077927;28;20047;-82
2023/01/18 07:44:09;;;;;;;4.97;3.08;;;17.00;75.50;;;17.86;43.08;95916.06;5075325;28;20040;-82
2023/01/18 07:46:35;;;;;;;3.60;2.88;;;17.00;75.40;;;17.88;43.06;95913.75;5059471;28;20040;-82
2023/01/18 07:49:04;;;;;;;4.05;3.13;;;17.00;76.00;;;17.95;43.19;95909.03;5072580;28;20043;-83
2023/01/18 07:51:33;;;;;;;3.47;3.10;;;17.00;76.10;;;17.93;43.17;95907.84;5075615;28;20118;-82
2023/01/18 07:54:00;;;;;;;5.28;3.78;;;17.00;76.10;;;17.88;42.95;95906.28;5051500;28;20040;-82
2023/01/18 07:56:26;;;;;;;5.28;3.80;;;17.00;75.50;;;17.86;43.09;95902.38;5087149;28;20090;-82
2023/01/18 07:58:53;;;;;;;5.05;3.38;;;17.00;75.50;;;17.83;42.98;95903.16;5111027;28;20040;-83
2023/01/18 08:01:20;;;;;;;4.88;3.53;;;17.00;75.40;;;17.86;43.15;95911.41;5089007;28;20054;-83
2023/01/18 08:03:47;;;;;;;5.07;3.42;;;17.00;75.40;;;17.94;42.95;95923.94;5091590;28;20126;-82
2023/01/18 08:06:17;;;;;;;6.93;3.78;;;17.00;76.10;;;17.97;42.97;95920.41;5059382;28;20069;-82
2023/01/18 08:08:44;;;;;;;3.67;3.13;;;17.00;76.10;;;17.94;42.92;95926.69;5045733;28;1157647;-82
2023/01/18 08:11:10;;;;;;;5.05;3.70;;;17.00;75.60;;;17.91;43.21;95934.88;5056512;28;20049;-82
2023/01/18 08:13:36;;;;;;;4.57;3.15;;;17.00;75.40;;;17.92;43.08;95926.28;5055950;28;20062;-83
2023/01/18 08:16:04;;;;;;;3.65;3.10;;;17.00;75.40;;;17.99;42.80;95914.53;5071846;28;20152;-82
2023/01/18 08:18:30;;;;;;;6.00;3.40;;;17.00;75.40;;;18.04;42.90;95916.06;5087378;28;20093;-83
2023/01/18 08:20:56;;;;;;;5.40;4.00;;;17.10;75.80;;;18.06;42.86;95906.28;5069554;28;20041;-83
2023/01/18 08:23:22;;;;;;;3.30;2.85;;;17.10;75.70;;;18.06;42.65;95906.28;5074268;28;20476;-82
2023/01/18 08:25:48;;;;;;;3.97;3.10;;;17.10;75.60;;;18.10;42.73;95909.03;5090387;28;20048;-82
2023/01/18 08:28:15;;;;;;;3.85;3.05;;;17.10;75.50;;;18.12;42.77;95910.22;5074357;28;20050;-82
2023/01/18 08:30:45;;;;;;;5.20;3.78;;;17.10;75.50;;;18.17;42.44;95917.25;5073039;28;20614;-83
2023/01/18 08:33:11;;;;;;;3.47;2.55;;;17.10;75.50;;;18.17;42.72;95930.97;5068132;28;20044;-82
2023/01/18 08:35:45;;;;;;;4.55;3.20;;;17.20;75.60;;;18.18;42.81;95932.53;5082374;28;20503;-82
2023/01/18 08:38:14;;;;;;;3.90;3.50;;;17.20;75.60;;;18.20;42.68;95946.66;5056406;28;20403;-83
2023/01/18 08:40:42;;;;;;;5.97;3.47;;;17.20;75.60;;;18.21;42.59;95962.69;5069784;28;20048;-82
2023/01/18 08:43:09;;;;;;;2.72;2.53;;;17.30;75.50;;;18.23;42.33;95956.84;5069512;28;20050;-82
2023/01/18 08:45:37;;;;;;;3.33;2.53;;;17.30;75.30;;;18.23;42.48;95959.56;5086656;28;20044;-82
2023/01/18 08:48:06;;;;;;;3.45;2.97;;;17.30;75.30;;;18.23;42.42;95962.31;5088486;28;20462;-82
2023/01/18 08:50:33;;;;;;;5.45;3.10;;;17.30;75.30;;;18.28;42.65;95967.41;5070893;28;20036;-82
2023/01/18 08:52:59;;;;;;;3.67;2.67;;;17.40;75.70;;;18.34;42.48;95976.84;5039358;28;20046;-82
2023/01/18 08:55:25;;;;;;;4.80;3.17;;;17.40;75.60;;;18.35;42.29;95983.88;5070850;28;20040;-83
2023/01/18 08:57:58;;;;;;;3.40;3.05;;;17.40;75.30;;;18.35;42.28;95986.63;5056393;28;20406;-82
2023/01/18 09:00:27;;;;;;;3.33;3.03;;;17.40;75.20;;;18.37;42.43;95983.50;5068822;28;20048;-83
2023/01/18 09:02:53;;;;;;;4.00;3.05;;;17.40;75.30;;;18.35;42.36;95980.34;5070206;28;20090;-82
2023/01/18 09:05:20;;;;;;;4.75;3.17;;;17.40;75.20;;;18.39;42.26;95967.41;5072793;28;20414;-82
2023/01/18 09:07:46;;;;;;;4.32;3.33;;;17.40;75.10;;;18.40;42.16;95947.03;5068504;28;20046;-83
2023/01/18 09:10:12;;;;;;;2.58;2.38;;;17.50;75.20;;;18.41;42.22;95946.63;5095069;27;20108;-82
2023/01/18 09:12:38;;;;;;;4.10;2.55;;;17.50;75.20;;;18.46;42.09;95942.69;5096008;27;20043;-82
2023/01/18 09:15:05;;;;;;;3.80;3.13;;;17.50;75.10;;;18.46;42.08;95945.44;5096403;27;20053;-83
2023/01/18 09:17:32;;;;;;;3.60;2.72;;;17.50;75.10;;;18.51;42.15;95947.00;5112477;27;20130;-82
2023/01/18 09:19:58;;;;;;;5.28;2.55;;;17.60;75.00;;;18.53;42.11;95950.16;5080471;27;20047;-83
2023/01/18 09:22:24;;;;;;;3.63;2.75;;;17.60;75.20;;;18.54;42.38;95949.72;5077078;27;20478;-83
2023/01/18 09:24:51;;;;;;;3.05;2.75;;;17.60;75.20;;;18.56;42.20;95952.09;5061799;27;20039;-83
2023/01/18 09:27:16;;;;;;;4.47;3.58;;;17.60;75.00;;;18.59;41.95;95954.81;5078283;27;20046;-83
2023/01/18 09:29:45;;;;;;;5.05;3.50;;;17.70;75.10;;;18.60;41.92;95952.88;5077676;27;20035;-83
2023/01/18 09:32:12;;;;;;;3.67;2.67;;;17.60;74.80;;;18.69;41.85;95966.97;5090902;27;20035;-82
2023/01/18 09:34:38;;;;;;;4.55;3.15;;;17.70;74.90;;;18.70;41.65;95968.53;5095828;28;20616;-82
2023/01/18 09:37:04;;;;;;;3.53;3.20;;;17.70;75.10;;;18.69;42.12;95975.19;5061351;27;20047;-83
2023/01/18 09:39:31;;;;;;;2.88;2.47;;;17.70;75.20;;;18.74;42.07;95993.25;5096964;27;20111;-82
2023/01/18 09:42:01;;;;;;;2.97;2.67;;;17.70;75.20;;;18.71;41.87;95996.78;5078676;27;20039;-82
2023/01/18 09:44:33;;;;;;;3.63;3.25;;;17.70;75.00;;;18.70;42.05;95989.69;5088766;28;20047;-82
2023/01/18 09:47:18;;;;;;;3.85;3.10;;;17.70;75.00;;;18.69;41.83;95994.41;5095344;27;20043;-82
2023/01/18 09:49:53;;;;;;;3.17;2.85;;;17.70;75.00;;;18.69;42.16;96008.13;5080988;27;20039;-82
2023/01/18 09:52:24;;;;;;;3.88;2.60;;;17.70;74.80;;;18.70;42.06;96015.22;5063944;28;20055;-83
2023/01/18 09:55:40;;;;;;;2.75;2.50;;;17.80;75.20;;;18.72;42.31;96017.56;5112041;27;20112;-83
2023/01/18 09:59:01;;;;;;;2.83;2.58;;;17.80;75.20;;;18.67;42.04;96032.47;5113766;27;20463;-82
2023/01/18 10:01:31;;;;;;;2.65;2.45;;;17.80;75.10;;;18.69;42.07;96048.56;5098524;28;20047;-83
2023/01/18 10:04:19;;;;;;;2.72;2.35;;;17.70;75.00;;;18.73;41.88;96049.34;5072911;28;20388;-83
2023/01/18 10:06:52;;;;;;;2.85;2.53;;;17.70;75.00;;;18.76;41.96;96052.09;5094581;28;20032;-82
2023/01/18 10:09:28;;;;;;;3.17;2.80;;;17.70;74.90;;;18.79;41.90;96061.50;5072187;28;20128;-82
2023/01/18 10:12:00;;;;;;;3.67;2.60;;;17.80;74.80;;;18.78;41.95;96051.72;5106310;28;20040;-82
2023/01/18 10:14:51;;;;;;;;;;;17.80;74.70;;;18.76;41.91;96060.34;5106705;28;20047;-83
2023/01/18 10:17:24;;;;;;;3.17;2.80;;;17.80;74.70;;;18.80;41.93;96058.38;5110311;28;19927;-83
2023/01/18 10:19:50;;;;;;;3.58;2.55;;;17.80;74.80;;;18.76;42.02;96054.06;5059829;28;20671;-83
2023/01/18 10:22:38;;;;;;;2.45;2.25;;;17.80;74.90;;;18.77;42.15;96050.13;5053348;28;20040;-82
2023/01/18 10:25:32;;;;;;;4.57;3.17;;;17.80;75.00;;;18.80;41.81;96052.91;5075715;28;20040;-82
2023/01/18 10:28:15;;;;;;;2.78;2.42;;;17.90;74.80;;;18.78;41.95;96046.22;5108881;28;20261;-83
2023/01/18 10:30:54;;;;;;;2.90;2.60;;;17.80;74.70;;;18.83;41.86;96045.81;5108823;28;20044;-83
2023/01/18 10:33:27;;;;;;;2.45;2.25;;;17.90;74.60;;;18.83;41.77;96056.81;5109028;28;20047;-83
2023/01/18 10:35:57;;;;;;;3.45;2.47;;;17.90;75.60;;;18.84;41.71;96059.16;5076812;28;20118;-83
2023/01/18 10:38:25;;;;;;;3.00;2.70;;;17.80;74.70;;;18.85;41.77;96065.41;5073980;28;20043;-82
2023/01/18 10:41:00;;;;;;;2.70;2.50;;;17.90;74.70;;;18.90;41.65;96073.25;5073110;28;20047;-83
2023/01/18 10:43:28;;;;;;;4.57;3.13;;;17.90;74.50;;;18.88;41.72;96081.13;5056419;28;20491;-82
2023/01/18 10:46:16;;;;;;;3.55;2.78;;;17.90;74.50;;;18.90;41.51;96073.25;5091566;28;20790;-83
2023/01/18 10:48:45;;;;;;;3.15;2.88;;;17.90;74.30;;;18.92;41.28;96081.91;5092341;28;20036;-83
2023/01/18 10:51:33;;;;;;;4.70;3.47;;;17.90;74.30;;;18.92;41.50;96081.91;5068199;28;20455;-82
2023/01/18 10:54:24;;;;;;;4.18;2.60;;;17.90;74.30;;;18.93;41.50;96077.19;5078426;28;20500;-83
2023/01/18 10:57:02;;;;;;;4.85;2.80;;;18.00;74.30;;;18.97;41.56;96094.44;5091714;28;20228;-83
2023/01/18 10:59:38;;;;;;;3.13;2.67;;;18.00;74.40;;;18.96;41.60;96092.88;5106305;28;20429;-82